Diretta Meteo Petropavlovsk-Kamchatskij, Russiamartedì 21 maggio ore 18:30

Mappa
Sereno 11 °C Sereno 24 Ore: T.min 6 T.max 17
Ponente Sud/Sud-Est Km/h 32.4 Punto di rugiada: 1 °C Umidità: 50% Visibilità: 10 Km
Il sole sorge alle: 05:16 Il sole tramonta alle: 21:27
21 Maggio 2019 18:30 tempo osservato: Sereno Sereno 11 50 1020 vento: Nord S/SE 32.4
21 Maggio 2019 18:00 tempo osservato: Sereno Sereno 13 47 1020 vento: Nord S/SE 36
21 Maggio 2019 17:30 tempo osservato: Sereno Sereno 13 47 1019 vento: Nord S/SE 32.4
21 Maggio 2019 17:00 tempo osservato: Sereno Sereno 13 47 1019 vento: Nord S/SE 32.4
21 Maggio 2019 16:30 tempo osservato: Sereno Sereno 14 47 1018 vento: Nord S 32.4
21 Maggio 2019 16:00 tempo osservato: Sereno Sereno 14 47 1018 vento: Nord S 32.4
21 Maggio 2019 15:30 tempo osservato: Sereno Sereno 13 50 1018 vento: Nord S/SE 32.4
21 Maggio 2019 15:00 tempo osservato: Sereno Sereno 13 50 1017 vento: Nord S 36
21 Maggio 2019 14:30 tempo osservato: Sereno Sereno 14 47 1017 vento: Nord S/SE 36
21 Maggio 2019 14:00 tempo osservato: Sereno Sereno 13 50 1016 vento: Nord S/SE 36
21 Maggio 2019 13:30 tempo osservato: Sereno Sereno 13 50 1016 vento: Nord S 36
21 Maggio 2019 13:00 tempo osservato: Sereno Sereno 13 54 1015 vento: Nord S 32.4
21 Maggio 2019 12:30 tempo osservato: Sereno Sereno 15 44 1015 vento: Nord S/SE 28.8
21 Maggio 2019 12:00 tempo osservato: Sereno Sereno 16 41 1014 vento: Nord SE 25.2
21 Maggio 2019 11:30 tempo osservato: Sereno Sereno 16 38 1013 vento: Nord S 25.2
21 Maggio 2019 11:00 tempo osservato: Sereno Sereno 17 39 1013 vento: Nord S 18
21 Maggio 2019 10:30 tempo osservato: Sereno Sereno 16 41 1012 vento: Nord S 10.8
21 Maggio 2019 10:00 tempo osservato: Sereno Sereno 15 44 1012 vento: Nord N 7.2
21 Maggio 2019 09:30 tempo osservato: Sereno Sereno 15 44 1012 vento: Nord O 10.8
21 Maggio 2019 09:00 tempo osservato: Sereno Sereno 14 47 1012 vento: Nord NO 14.4
21 Maggio 2019 08:30 tempo osservato: Sereno Sereno 13 50 1012 vento: Nord NO 21.6
21 Maggio 2019 07:30 tempo osservato: Sereno Sereno 10 57 1011 vento: Nord NO 10.8
21 Maggio 2019 07:00 tempo osservato: Sereno Sereno 9 61 1011 vento: Nord N/NO 14.4
21 Maggio 2019 06:30 tempo osservato: Sereno Sereno 8 61 1010 vento: Nord O 14.4
21 Maggio 2019 06:00 tempo osservato: Sereno Sereno 6 70 1010 vento: Nord N 7.2
21 Maggio 2019 05:00 tempo osservato: Sereno Sereno 6 70 1009 vento: Nord N/NO 18
21 Maggio 2019 04:00 tempo osservato: Sereno Sereno 8 61 1009 vento: Nord N 21.6
21 Maggio 2019 03:00 tempo osservato: Sereno Sereno 9 57 1009 vento: Nord N 21.6
21 Maggio 2019 02:00 tempo osservato: Sereno Sereno 9 57 1008 vento: Nord N 21.6
21 Maggio 2019 01:00 tempo osservato: Sereno Sereno 10 53 1008 vento: Nord N 21.6
21 Maggio 2019 00:00 tempo osservato: Sereno Sereno 10 53 1008 vento: Nord N 18
20 Maggio 2019 23:00 tempo osservato: Sereno Sereno 10 53 1008 vento: Nord N 14.4
20 Maggio 2019 22:00 tempo osservato: Sereno Sereno 12 46 1007 vento: Nord N 21.6
20 Maggio 2019 21:00 tempo osservato: Sereno Sereno 13 47 1007 vento: Nord O/NO 21.6
20 Maggio 2019 20:00 tempo osservato: Sereno Sereno 14 44 1007 vento: Nord O/NO 32.4